Time,TemperatureF,DewpointF,PressureIn,WindDirection,WindDirectionDegrees,WindSpeedMPH,WindSpeedGustMPH,Humidity,HourlyPrecipIn,Conditions,Clouds,dailyrainin,SolarRadiationWatts/m^2,SoftwareType,DateUTC
2013-01-31 07:22:00,16.0,13.0,-100.00,WNW,299,3.0,14.0,86,0.00,,,0.00,0.000000,,2013-01-31 14:22:00,
2013-01-31 07:32:00,16.0,13.0,-100.00,WNW,299,3.0,14.0,86,0.00,,,0.00,0.000000,,2013-01-31 14:32:00,
2013-01-31 07:42:00,16.0,13.0,-100.00,WNW,299,3.0,14.0,86,0.00,,,0.00,0.000000,,2013-01-31 14:42:00,
2013-01-31 07:52:00,16.0,13.0,-100.00,WNW,299,3.0,14.0,86,0.00,,,0.00,0.000000,,2013-01-31 14:52:00,
2013-01-31 08:22:00,17.0,10.0,-100.00,WNW,299,10.0,19.0,74,0.00,,,0.00,4.000000,,2013-01-31 15:22:00,
2013-01-31 08:32:00,17.0,10.0,-100.00,WNW,299,10.0,19.0,74,0.00,,,0.00,4.000000,,2013-01-31 15:32:00,
2013-01-31 08:42:00,17.0,10.0,-100.00,WNW,299,10.0,19.0,74,0.00,,,0.00,4.000000,,2013-01-31 15:42:00,
2013-01-31 08:51:00,17.0,10.0,-100.00,WNW,299,10.0,19.0,74,0.00,,,0.00,4.000000,,2013-01-31 15:51:00,
2013-01-31 09:22:00,19.0,11.0,-100.00,WNW,285,7.0,15.0,72,0.00,,,0.00,32.000000,,2013-01-31 16:22:00,
2013-01-31 09:33:00,19.0,11.0,-100.00,WNW,285,7.0,15.0,72,0.00,,,0.00,32.000000,,2013-01-31 16:33:00,
2013-01-31 09:42:00,19.0,11.0,-100.00,WNW,285,7.0,15.0,72,0.00,,,0.00,32.000000,,2013-01-31 16:42:00,
2013-01-31 09:51:00,19.0,11.0,-100.00,WNW,285,7.0,15.0,72,0.00,,,0.00,32.000000,,2013-01-31 16:51:00,
2013-01-31 10:23:00,20.0,13.0,-100.00,WNW,289,7.0,13.0,73,0.00,,,0.00,72.000000,,2013-01-31 17:23:00,
2013-01-31 10:32:00,20.0,13.0,-100.00,WNW,289,7.0,13.0,73,0.00,,,0.00,72.000000,,2013-01-31 17:32:00,
2013-01-31 10:43:00,20.0,13.0,-100.00,WNW,289,7.0,13.0,73,0.00,,,0.00,72.000000,,2013-01-31 17:43:00,
2013-01-31 10:53:00,20.0,13.0,-100.00,WNW,289,7.0,13.0,73,0.00,,,0.00,72.000000,,2013-01-31 17:53:00,
2013-01-31 11:22:00,22.0,14.0,-100.00,NW,314,6.0,13.0,71,0.00,,,0.00,86.000000,,2013-01-31 18:22:00,
2013-01-31 11:32:00,22.0,14.0,-100.00,NW,314,6.0,13.0,71,0.00,,,0.00,86.000000,,2013-01-31 18:32:00,
2013-01-31 11:43:00,22.0,14.0,-100.00,NW,314,6.0,13.0,71,0.00,,,0.00,86.000000,,2013-01-31 18:43:00,
2013-01-31 11:52:00,22.0,14.0,-100.00,NW,314,6.0,13.0,71,0.00,,,0.00,86.000000,,2013-01-31 18:52:00,
2013-01-31 12:22:00,24.0,14.0,-100.00,NNW,333,5.0,12.0,65,0.00,,,0.00,122.000000,,2013-01-31 19:22:00,
2013-01-31 12:32:00,24.0,14.0,-100.00,NNW,333,5.0,12.0,65,0.00,,,0.00,122.000000,,2013-01-31 19:32:00,
2013-01-31 12:42:00,24.0,14.0,-100.00,NNW,333,5.0,12.0,65,0.00,,,0.00,122.000000,,2013-01-31 19:42:00,
2013-01-31 12:52:00,24.0,14.0,-100.00,NNW,333,5.0,12.0,65,0.00,,,0.00,122.000000,,2013-01-31 19:52:00,
2013-01-31 13:22:00,27.0,14.0,-100.00,NNW,339,6.0,11.0,58,0.00,,,0.00,177.000000,,2013-01-31 20:22:00,
2013-01-31 13:32:00,27.0,14.0,-100.00,NNW,339,6.0,11.0,58,0.00,,,0.00,177.000000,,2013-01-31 20:32:00,
2013-01-31 13:42:00,27.0,14.0,-100.00,NNW,339,6.0,11.0,58,0.00,,,0.00,177.000000,,2013-01-31 20:42:00,
2013-01-31 13:52:00,27.0,14.0,-100.00,NNW,339,6.0,11.0,58,0.00,,,0.00,177.000000,,2013-01-31 20:52:00,
2013-01-31 14:22:00,27.0,11.0,-100.00,WNW,293,6.0,27.0,50,0.05,,,-99.99,279.000000,,2013-01-31 21:22:00,
2013-01-31 14:32:00,27.0,11.0,-100.00,WNW,293,6.0,27.0,50,0.05,,,-99.99,279.000000,,2013-01-31 21:32:00,
2013-01-31 14:42:00,27.0,11.0,-100.00,WNW,293,6.0,27.0,50,0.05,,,-99.99,279.000000,,2013-01-31 21:42:00,
2013-01-31 14:52:00,27.0,11.0,-100.00,WNW,293,6.0,27.0,50,0.05,,,-99.99,279.000000,,2013-01-31 21:52:00,
2013-01-31 15:22:00,24.0,11.0,-100.00,NW,305,5.0,11.0,56,0.03,,,0.08,144.000000,,2013-01-31 22:22:00,
2013-01-31 15:33:00,24.0,11.0,-100.00,NW,305,5.0,11.0,56,0.03,,,0.08,144.000000,,2013-01-31 22:33:00,
2013-01-31 15:42:00,24.0,11.0,-100.00,NW,305,5.0,11.0,56,0.03,,,0.08,144.000000,,2013-01-31 22:42:00,
2013-01-31 15:51:00,24.0,11.0,-100.00,NW,305,5.0,11.0,56,0.03,,,0.08,144.000000,,2013-01-31 22:51:00,
2013-01-31 16:22:00,26.0,10.0,-100.00,NNE,16,3.0,8.0,50,0.00,,,0.08,144.000000,,2013-01-31 23:22:00,
2013-01-31 16:32:00,26.0,10.0,-100.00,NNE,16,3.0,8.0,50,0.00,,,0.08,144.000000,,2013-01-31 23:32:00,
2013-01-31 16:42:00,26.0,10.0,-100.00,NNE,16,3.0,8.0,50,0.00,,,0.08,144.000000,,2013-01-31 23:42:00,
2013-01-31 16:52:00,26.0,10.0,-100.00,NNE,16,3.0,8.0,50,0.00,,,0.08,144.000000,,2013-01-31 23:52:00,
2013-01-31 17:22:00,23.0,8.0,-100.00,NNW,347,1.0,9.0,53,0.00,,,0.08,115.000000,,2013-02-01 00:22:00,
2013-01-31 17:32:00,23.0,8.0,-100.00,NNW,347,1.0,9.0,53,0.00,,,0.08,115.000000,,2013-02-01 00:32:00,
2013-01-31 17:42:00,23.0,8.0,-100.00,NNW,347,1.0,9.0,53,0.00,,,0.08,115.000000,,2013-02-01 00:42:00,
2013-01-31 17:51:00,23.0,8.0,-100.00,NNW,347,1.0,9.0,53,0.00,,,0.08,115.000000,,2013-02-01 00:51:00,
2013-01-31 18:21:00,17.0,8.0,-100.00,East,88,3.0,9.0,66,0.00,,,0.08,8.000000,,2013-02-01 01:21:00,
2013-01-31 18:32:00,17.0,8.0,-100.00,East,88,3.0,9.0,66,0.00,,,0.08,8.000000,,2013-02-01 01:32:00,
2013-01-31 18:42:00,17.0,8.0,-100.00,East,88,3.0,9.0,66,0.00,,,0.08,8.000000,,2013-02-01 01:42:00,
2013-01-31 18:52:00,17.0,8.0,-100.00,East,88,3.0,9.0,66,0.00,,,0.08,8.000000,,2013-02-01 01:52:00,
2013-01-31 19:21:00,16.0,9.0,-100.00,East,81,4.0,6.0,73,0.00,,,-99.99,0.000000,,2013-02-01 02:21:00,
2013-01-31 19:32:00,16.0,9.0,-100.00,East,81,4.0,6.0,73,0.00,,,-99.99,0.000000,,2013-02-01 02:32:00,
2013-01-31 19:42:00,16.0,9.0,-100.00,East,81,4.0,6.0,73,0.00,,,-99.99,0.000000,,2013-02-01 02:42:00,
2013-01-31 19:52:00,16.0,9.0,-100.00,East,81,4.0,6.0,73,0.00,,,-99.99,0.000000,,2013-02-01 02:52:00,
2013-01-31 20:12:00,15.0,9.0,-100.00,ESE,112,3.0,5.0,76,0.00,,,0.08,0.000000,,2013-02-01 03:12:00,
2013-01-31 20:21:00,15.0,9.0,-100.00,ESE,112,3.0,5.0,76,0.00,,,0.08,0.000000,,2013-02-01 03:21:00,
2013-01-31 20:32:00,15.0,9.0,-100.00,ESE,112,3.0,5.0,76,0.00,,,0.08,0.000000,,2013-02-01 03:32:00,
2013-01-31 20:42:00,15.0,9.0,-100.00,ESE,112,3.0,5.0,76,0.00,,,0.08,0.000000,,2013-02-01 03:42:00,
2013-01-31 20:51:00,15.0,9.0,-100.00,ESE,112,3.0,5.0,76,0.00,,,0.08,0.000000,,2013-02-01 03:51:00,
2013-01-31 21:21:00,15.0,8.0,-100.00,ESE,111,3.0,7.0,74,0.00,,,0.08,0.000000,,2013-02-01 04:21:00,
2013-01-31 21:32:00,15.0,8.0,-100.00,ESE,111,3.0,7.0,74,0.00,,,0.08,0.000000,,2013-02-01 04:32:00,
2013-01-31 21:41:00,15.0,8.0,-100.00,ESE,111,3.0,7.0,74,0.00,,,0.08,0.000000,,2013-02-01 04:41:00,
2013-01-31 21:51:00,15.0,8.0,-100.00,ESE,111,3.0,7.0,74,0.00,,,0.08,0.000000,,2013-02-01 04:51:00,
2013-01-31 22:22:00,16.0,9.0,-100.00,East,94,2.0,5.0,74,0.00,,,0.08,0.000000,,2013-02-01 05:22:00,
2013-01-31 22:32:00,16.0,9.0,-100.00,East,94,2.0,5.0,74,0.00,,,0.08,0.000000,,2013-02-01 05:32:00,
2013-01-31 22:42:00,16.0,9.0,-100.00,East,94,2.0,5.0,74,0.00,,,0.08,0.000000,,2013-02-01 05:42:00,
2013-01-31 22:52:00,16.0,9.0,-100.00,East,94,2.0,5.0,74,0.00,,,0.08,0.000000,,2013-02-01 05:52:00,
2013-01-31 23:22:00,17.0,11.0,-100.00,ESE,103,4.0,7.0,77,0.00,,,0.08,0.000000,,2013-02-01 06:22:00,
2013-01-31 23:32:00,17.0,11.0,-100.00,ESE,103,4.0,7.0,77,0.00,,,0.08,0.000000,,2013-02-01 06:32:00,
2013-01-31 23:42:00,17.0,11.0,-100.00,ESE,103,4.0,7.0,77,0.00,,,0.08,0.000000,,2013-02-01 06:42:00,
2013-01-31 23:52:00,17.0,11.0,-100.00,ESE,103,4.0,7.0,77,0.00,,,0.08,0.000000,,2013-02-01 06:52:00,